createdAt,value
2018-07-19T00:01:14.556Z,101581.02
2018-07-19T00:03:41.937Z,101579.73
2018-07-19T00:06:08.993Z,101579.47
2018-07-19T00:08:43.187Z,101582.15
2018-07-19T00:11:10.220Z,101579.54
2018-07-19T00:13:37.242Z,101576.37
2018-07-19T00:16:04.414Z,101575.95
2018-07-19T00:18:31.443Z,101577.27
2018-07-19T00:20:58.527Z,101576.35
2018-07-19T00:23:26.302Z,101575.59
2018-07-19T00:25:53.764Z,101572.59
2018-07-19T00:28:20.806Z,101573.91
2018-07-19T00:30:48.326Z,101574.35
2018-07-19T00:33:15.353Z,101584.31
2018-07-19T00:35:42.367Z,101574.86
2018-07-19T00:38:10.127Z,101579.03
2018-07-19T00:40:38.120Z,101578.95
2018-07-19T00:43:05.175Z,101575.84
2018-07-19T00:45:32.546Z,101580.20
2018-07-19T00:47:59.576Z,101581.13
2018-07-19T00:50:26.634Z,101574.77
2018-07-19T00:52:54.120Z,101581.97
2018-07-19T00:55:21.215Z,101576.83
2018-07-19T00:57:48.290Z,101582.31
2018-07-19T01:00:15.491Z,101579.05
2018-07-19T01:02:42.529Z,101584.39
2018-07-19T01:05:09.555Z,101568.41
2018-07-19T01:07:36.872Z,101578.32
2018-07-19T01:10:04.242Z,101584.56
2018-07-19T01:12:31.320Z,101579.91
2018-07-19T01:14:58.786Z,101559.08
2018-07-19T01:17:25.836Z,101586.19
2018-07-19T01:19:52.896Z,101585.95
2018-07-19T01:22:20.499Z,101585.02
2018-07-19T01:24:47.552Z,101585.83
2018-07-19T01:27:14.647Z,101590.67
2018-07-19T01:29:42.229Z,101591.30
2018-07-19T01:32:09.796Z,101595.17
2018-07-19T01:34:36.852Z,101597.67
2018-07-19T01:37:04.446Z,101596.70
2018-07-19T01:39:31.482Z,101600.57
2018-07-19T01:42:13.798Z,101601.86
2018-07-19T01:44:41.056Z,101593.09
2018-07-19T01:47:08.088Z,101595.59
2018-07-19T01:49:35.286Z,101599.56
2018-07-19T01:52:02.470Z,101603.08
2018-07-19T01:54:29.482Z,101601.86
2018-07-19T01:56:56.652Z,101588.02
2018-07-19T01:59:24.129Z,101595.49
2018-07-19T02:01:51.262Z,101592.53
2018-07-19T02:04:18.481Z,101591.94
2018-07-19T02:06:45.832Z,101597.64
2018-07-19T02:09:12.827Z,101598.66
2018-07-19T02:11:40.385Z,101589.44
2018-07-19T02:14:07.465Z,101588.21
2018-07-19T02:16:34.469Z,101590.06
2018-07-19T02:19:01.751Z,101588.84
2018-07-19T02:21:28.872Z,101588.77
2018-07-19T02:23:55.944Z,101583.97
2018-07-19T02:26:23.133Z,101583.61
2018-07-19T02:28:50.878Z,101584.48
2018-07-19T02:31:17.936Z,101581.77
2018-07-19T02:33:45.565Z,101582.98
2018-07-19T02:36:12.777Z,101584.84
2018-07-19T02:38:39.814Z,101575.48
2018-07-19T02:41:08.052Z,101583.13
2018-07-19T02:43:35.269Z,101578.54
2018-07-19T02:46:02.346Z,101579.41
2018-07-19T02:48:29.554Z,101579.41
2018-07-19T02:50:56.850Z,101577.56
2018-07-19T02:53:23.892Z,101582.33
2018-07-19T02:55:51.110Z,101582.72
2018-07-19T02:58:18.431Z,101574.05
2018-07-19T03:00:45.487Z,101578.72
2018-07-19T03:03:12.700Z,101568.22
2018-07-19T03:05:39.872Z,101578.44
2018-07-19T03:08:06.835Z,101574.23
2018-07-19T03:10:34.365Z,101579.88
2018-07-19T03:13:01.513Z,101569.40
2018-07-19T03:15:28.597Z,101579.48
2018-07-19T03:17:55.806Z,101577.47
2018-07-19T03:20:23.031Z,101580.91
2018-07-19T03:22:50.083Z,101581.64
2018-07-19T03:25:17.720Z,101585.92
2018-07-19T03:27:45.023Z,101585.78
2018-07-19T03:30:12.002Z,101585.02
2018-07-19T03:32:39.277Z,101586.23
2018-07-19T03:35:06.638Z,101587.45
2018-07-19T03:37:33.635Z,101585.44
2018-07-19T03:40:00.842Z,101586.30
2018-07-19T03:42:28.377Z,101587.77
2018-07-19T03:44:55.436Z,101587.62
2018-07-19T03:47:22.610Z,101592.28
2018-07-19T03:49:49.787Z,101589.81
2018-07-19T03:52:16.833Z,101589.01
2018-07-19T03:54:44.108Z,101588.73
2018-07-19T03:57:11.349Z,101591.02
2018-07-19T03:59:38.377Z,101597.04
2018-07-19T04:02:05.782Z,101594.77
2018-07-19T04:04:33.097Z,101598.91
2018-07-19T04:07:00.089Z,101593.91
2018-07-19T04:09:27.261Z,101595.71
2018-07-19T04:11:54.448Z,101595.78
2018-07-19T04:14:21.567Z,101594.86
2018-07-19T04:16:49.698Z,101599.72
2018-07-19T04:19:16.930Z,101603.56
2018-07-19T04:21:43.989Z,101604.14
2018-07-19T04:24:11.266Z,101599.63
2018-07-19T04:26:38.522Z,101604.03
2018-07-19T04:29:05.575Z,101602.59
2018-07-19T04:31:32.683Z,101603.02
2018-07-19T04:33:59.843Z,101603.80
2018-07-19T04:36:26.960Z,101604.91
2018-07-19T04:38:54.148Z,101602.48
2018-07-19T04:41:21.435Z,101604.61
2018-07-19T04:43:48.544Z,101603.67
2018-07-19T04:46:15.850Z,101602.07
2018-07-19T04:48:43.083Z,101599.10
2018-07-19T04:51:10.135Z,101596.66
2018-07-19T04:53:37.458Z,101600.14
2018-07-19T04:56:04.784Z,101604.18
2018-07-19T04:58:31.784Z,101602.72
2018-07-19T05:00:59.015Z,101603.33
2018-07-19T05:03:26.316Z,101603.73
2018-07-19T05:05:53.378Z,101603.63
2018-07-19T05:08:20.650Z,101607.97
2018-07-19T05:10:47.869Z,101603.28
2018-07-19T05:13:14.919Z,101598.25
2018-07-19T05:15:42.104Z,101601.08
2018-07-19T05:18:09.328Z,101601.98
2018-07-19T05:20:36.347Z,101596.41
2018-07-19T05:23:03.578Z,101600.22
2018-07-19T05:25:30.783Z,101598.80
2018-07-19T05:27:57.743Z,101601.75
2018-07-19T05:30:24.975Z,101596.70
2018-07-19T05:32:52.217Z,101595.73
2018-07-19T05:35:19.255Z,101604.16
2018-07-19T05:37:46.510Z,101599.94
2018-07-19T05:40:13.833Z,101597.61
2018-07-19T05:42:40.884Z,101601.41
2018-07-19T05:45:08.119Z,101605.41
2018-07-19T05:47:35.294Z,101605.27
2018-07-19T05:50:02.337Z,101598.84
2018-07-19T05:52:29.623Z,101597.52
2018-07-19T05:54:56.871Z,101592.00
2018-07-19T05:57:23.923Z,101599.05
2018-07-19T05:59:51.756Z,101599.40
2018-07-19T06:02:18.937Z,101597.23
2018-07-19T06:04:46.027Z,101595.59
2018-07-19T06:07:13.246Z,101594.42
2018-07-19T06:09:40.638Z,101581.87
2018-07-19T06:12:07.838Z,101591.80
2018-07-19T06:14:35.173Z,101591.15
2018-07-19T06:17:02.572Z,101589.63
2018-07-19T06:19:29.706Z,101591.38
2018-07-19T06:21:56.949Z,101594.48
2018-07-19T06:24:24.145Z,101598.78
2018-07-19T06:26:51.227Z,101599.50
2018-07-19T06:29:18.424Z,101602.11
2018-07-19T06:31:45.657Z,101600.24
2018-07-19T06:34:12.729Z,101594.78
2018-07-19T06:36:39.968Z,101595.98
2018-07-19T06:39:07.424Z,101590.23
2018-07-19T06:41:34.420Z,101587.50
2018-07-19T06:44:01.769Z,101595.03
2018-07-19T06:46:29.134Z,101588.03
2018-07-19T06:48:56.137Z,101588.73
2018-07-19T06:51:23.382Z,101594.05
2018-07-19T06:53:50.660Z,101590.19
2018-07-19T06:56:18.440Z,101596.52
2018-07-19T06:58:45.614Z,101601.30
2018-07-19T07:01:12.942Z,101600.80
2018-07-19T07:03:40.106Z,101596.19
2018-07-19T07:06:07.193Z,101594.98
2018-07-19T07:08:35.118Z,101600.28
2018-07-19T07:11:02.157Z,101601.83
2018-07-19T07:13:29.426Z,101598.09
2018-07-19T07:15:56.648Z,101602.17
2018-07-19T07:18:23.694Z,101598.76
2018-07-19T07:20:50.959Z,101598.24
2018-07-19T07:23:18.204Z,101601.55
2018-07-19T07:25:48.146Z,101602.73
2018-07-19T07:28:15.377Z,101606.16
2018-07-19T07:30:42.523Z,101599.30
2018-07-19T07:33:09.660Z,101596.04
2018-07-19T07:35:36.793Z,101590.22
2018-07-19T07:38:04.166Z,101596.90
2018-07-19T07:40:31.423Z,101600.48
2018-07-19T07:45:25.732Z,101605.42
2018-07-19T07:47:52.773Z,101604.56
2018-07-19T07:50:19.968Z,101605.91
2018-07-19T07:52:47.275Z,101603.52
2018-07-19T07:55:14.362Z,101600.58
2018-07-19T07:57:41.579Z,101605.05
2018-07-19T08:00:08.927Z,101597.17
2018-07-19T08:02:35.976Z,101602.81
2018-07-19T08:05:03.093Z,101605.85
2018-07-19T08:07:30.400Z,101606.36
2018-07-19T08:09:57.431Z,101606.33
2018-07-19T08:12:24.627Z,101608.03
2018-07-19T08:14:51.923Z,101599.81
2018-07-19T08:17:18.998Z,101602.53
2018-07-19T08:19:46.291Z,101603.54
2018-07-19T08:22:13.392Z,101601.30
2018-07-19T08:24:40.450Z,101601.78
2018-07-19T08:27:07.567Z,101596.30
2018-07-19T08:29:35.003Z,101596.27
2018-07-19T08:32:02.696Z,101590.59
2018-07-19T08:34:30.004Z,101597.95
2018-07-19T08:36:57.209Z,101594.02
2018-07-19T08:39:24.276Z,101594.48
2018-07-19T08:41:51.858Z,101594.48
2018-07-19T08:44:19.571Z,101589.47
2018-07-19T08:46:46.581Z,101589.28
2018-07-19T08:49:13.957Z,101588.02
2018-07-19T08:51:41.265Z,101591.08
2018-07-19T08:54:08.307Z,101596.88
2018-07-19T08:56:35.381Z,101595.28
2018-07-19T08:59:02.577Z,101594.04
2018-07-19T09:01:29.577Z,101587.13
2018-07-19T09:03:56.822Z,101593.83
2018-07-19T09:06:24.088Z,101587.92
2018-07-19T09:08:51.140Z,101583.25
2018-07-19T09:11:18.358Z,101586.12
2018-07-19T09:13:45.817Z,101584.87
2018-07-19T09:16:12.873Z,101591.81
2018-07-19T09:18:40.201Z,101589.19
2018-07-19T09:21:07.460Z,101591.72
2018-07-19T09:23:34.471Z,101587.17
2018-07-19T09:26:01.726Z,101580.96
2018-07-19T09:28:28.989Z,101585.38
2018-07-19T09:30:56.030Z,101585.45
2018-07-19T09:33:23.293Z,101591.92
2018-07-19T09:35:50.595Z,101583.78
2018-07-19T09:38:17.719Z,101581.64
2018-07-19T09:40:44.849Z,101583.63
2018-07-19T09:43:12.340Z,101585.61
2018-07-19T09:45:39.446Z,101587.21
2018-07-19T09:48:06.643Z,101577.66
2018-07-19T09:50:33.924Z,101577.36
2018-07-19T09:53:00.975Z,101575.09
2018-07-19T09:55:28.292Z,101582.03
2018-07-19T09:57:55.572Z,101580.73
2018-07-19T10:00:28.113Z,101579.81
2018-07-19T10:02:55.385Z,101584.56
2018-07-19T10:05:22.772Z,101584.40
2018-07-19T10:07:50.062Z,101580.09
2018-07-19T10:10:17.967Z,101575.78
2018-07-19T10:12:45.851Z,101580.02
2018-07-19T10:15:13.744Z,101587.34
2018-07-19T10:17:41.673Z,101581.06
2018-07-19T10:20:09.682Z,101581.01
2018-07-19T10:22:37.389Z,101585.20
2018-07-19T10:25:05.322Z,101582.92
2018-07-19T10:27:33.228Z,101575.72
2018-07-19T10:30:00.970Z,101573.81
2018-07-19T10:32:28.919Z,101573.17
2018-07-19T10:34:56.884Z,101572.41
2018-07-19T10:37:24.671Z,101572.27
2018-07-19T10:39:52.481Z,101567.91
2018-07-19T10:42:28.272Z,101568.70
2018-07-19T10:44:56.545Z,101568.86
2018-07-19T10:47:24.581Z,101569.48
2018-07-19T10:49:52.307Z,101564.09
2018-07-19T10:52:20.293Z,101565.41
2018-07-19T10:54:48.396Z,101565.05
2018-07-19T10:57:16.216Z,101557.01
2018-07-19T10:59:44.813Z,101558.10
2018-07-19T11:02:12.709Z,101554.88
2018-07-19T11:04:40.511Z,101565.62
2018-07-19T11:07:08.568Z,101551.91
2018-07-19T11:09:36.700Z,101549.55
2018-07-19T11:12:04.643Z,101557.19
2018-07-19T11:14:32.624Z,101548.27
2018-07-19T11:17:00.602Z,101546.00
2018-07-19T11:19:28.353Z,101549.55
2018-07-19T11:21:56.419Z,101542.17
2018-07-19T11:24:24.301Z,101541.25
2018-07-19T11:26:52.029Z,101539.52
2018-07-19T11:29:20.434Z,101537.67
2018-07-19T11:31:48.756Z,101536.78
2018-07-19T11:34:16.434Z,101525.30
2018-07-19T11:36:44.361Z,101528.30
2018-07-19T11:39:12.310Z,101541.25
2018-07-19T11:41:40.898Z,101538.77
2018-07-19T11:44:08.869Z,101535.64
2018-07-19T11:46:36.856Z,101534.48
2018-07-19T11:49:04.631Z,101540.95
2018-07-19T11:51:32.414Z,101538.02
2018-07-19T11:54:00.270Z,101533.16
2018-07-19T11:59:02.463Z,101526.52
2018-07-19T12:01:36.364Z,101519.46
2018-07-19T12:04:04.424Z,101520.91
2018-07-19T12:06:32.266Z,101519.23
2018-07-19T12:08:59.909Z,101516.13
2018-07-19T12:11:27.989Z,101518.60
2018-07-19T12:13:55.741Z,101520.38
2018-07-19T12:16:23.506Z,101518.70
2018-07-19T12:18:51.575Z,101520.24
2018-07-19T12:21:19.279Z,101519.31
2018-07-19T12:23:47.084Z,101516.30
2018-07-19T12:26:15.441Z,101517.69
2018-07-19T12:28:43.319Z,101519.94
2018-07-19T12:31:11.009Z,101509.52
2018-07-19T12:33:39.054Z,101516.85
2018-07-19T12:36:06.832Z,101523.23
2018-07-19T12:38:34.703Z,101523.79
2018-07-19T12:41:02.943Z,101519.00
2018-07-19T12:43:30.780Z,101513.92
2018-07-19T12:45:58.492Z,101506.83
2018-07-19T12:48:26.833Z,101512.94
2018-07-19T12:50:54.740Z,101512.70
2018-07-19T12:53:22.456Z,101505.89
2018-07-19T12:55:50.571Z,101505.19
2018-07-19T12:58:18.300Z,101514.38
2018-07-19T13:00:46.069Z,101513.16
2018-07-19T13:03:14.346Z,101512.94
2018-07-19T13:05:42.070Z,101499.08
2018-07-19T13:08:09.704Z,101508.13
2018-07-19T13:10:37.869Z,101505.66
2018-07-19T13:13:05.615Z,101508.20
2018-07-19T13:15:34.162Z,101503.74
2018-07-19T13:18:02.783Z,101504.86
2018-07-19T13:20:34.564Z,101503.77
2018-07-19T13:23:02.543Z,101500.19
2018-07-19T13:25:29.816Z,101506.17
2018-07-19T13:27:57.374Z,101495.07
2018-07-19T13:30:24.544Z,101504.30
2018-07-19T13:32:51.860Z,101503.81
2018-07-19T13:35:18.945Z,101503.00
2018-07-19T13:37:46.253Z,101499.80
2018-07-19T13:40:13.730Z,101503.20
2018-07-19T13:42:40.836Z,101496.35
2018-07-19T13:45:08.075Z,101496.94
2018-07-19T13:47:35.361Z,101494.13
2018-07-19T13:50:02.632Z,101497.45
2018-07-19T13:52:35.260Z,101495.90
2018-07-19T13:55:02.711Z,101494.41
2018-07-19T13:57:29.919Z,101485.83
2018-07-19T13:59:56.998Z,101482.47
2018-07-19T14:02:24.305Z,101481.60
2018-07-19T14:04:51.516Z,101481.09
2018-07-19T14:07:18.793Z,101489.83
2018-07-19T14:09:46.392Z,101482.75
2018-07-19T14:12:13.633Z,101477.54
2018-07-19T14:14:40.827Z,101478.02
2018-07-19T14:17:08.325Z,101468.88
2018-07-19T14:19:36.222Z,101477.95
2018-07-19T14:22:03.426Z,101474.45
2018-07-19T14:24:30.740Z,101472.41
2018-07-19T14:26:57.955Z,101469.00
2018-07-19T14:29:25.166Z,101468.60
2018-07-19T14:31:52.848Z,101468.82
2018-07-19T14:34:20.124Z,101474.22
2018-07-19T14:36:47.292Z,101465.84
2018-07-19T14:39:14.982Z,101466.27
2018-07-19T14:41:42.179Z,101463.95
2018-07-19T14:44:10.369Z,101468.83
2018-07-19T14:46:37.983Z,101465.33
2018-07-19T14:49:05.218Z,101471.80
2018-07-19T14:51:32.594Z,101477.02
2018-07-19T14:54:00.032Z,101472.99
2018-07-19T14:56:27.596Z,101470.83
2018-07-19T14:58:55.216Z,101471.89
2018-07-19T15:01:22.853Z,101476.36
2018-07-19T15:03:50.051Z,101474.88
2018-07-19T15:06:17.268Z,101462.12
2018-07-19T15:08:45.483Z,101462.88
2018-07-19T15:11:12.778Z,101461.17
2018-07-19T15:13:40.026Z,101458.52
2018-07-19T15:16:07.555Z,101459.69
2018-07-19T15:18:34.798Z,101473.48
2018-07-19T15:21:02.531Z,101461.80
2018-07-19T15:23:30.144Z,101466.67
2018-07-19T15:25:57.749Z,101470.29
2018-07-19T15:28:25.008Z,101465.62
2018-07-19T15:30:52.497Z,101463.60
2018-07-19T15:33:19.731Z,101466.48
2018-07-19T15:35:46.913Z,101464.66
2018-07-19T15:38:14.558Z,101461.17
2018-07-19T15:40:41.730Z,101464.03
2018-07-19T15:43:09.037Z,101452.66
2018-07-19T15:45:36.657Z,101456.30
2018-07-19T15:48:03.923Z,101457.25
2018-07-19T15:50:31.101Z,101452.78
2018-07-19T15:52:58.779Z,101452.88
2018-07-19T15:55:26.060Z,101453.56
2018-07-19T15:57:53.300Z,101445.29
2018-07-19T16:00:21.134Z,101449.09
2018-07-19T16:02:48.373Z,101448.75
2018-07-19T16:05:15.616Z,101455.88
2018-07-19T16:07:43.109Z,101451.83
2018-07-19T16:10:10.376Z,101446.64
2018-07-19T16:12:37.603Z,101446.64
2018-07-19T16:15:05.123Z,101444.30
2018-07-19T16:17:32.373Z,101445.78
2018-07-19T16:19:59.608Z,101440.29
2018-07-19T16:22:27.318Z,101443.27
2018-07-19T16:24:54.570Z,101441.97
2018-07-19T16:27:21.764Z,101446.22
2018-07-19T16:29:49.272Z,101443.36
2018-07-19T16:32:16.502Z,101437.39
2018-07-19T16:34:43.729Z,101451.08
2018-07-19T16:37:11.284Z,101446.61
2018-07-19T16:39:38.584Z,101449.22
2018-07-19T16:42:05.791Z,101442.72
2018-07-19T16:44:33.646Z,101441.42
2018-07-19T16:47:00.801Z,101447.11
2018-07-19T16:49:27.974Z,101441.91
2018-07-19T16:51:55.620Z,101449.19
2018-07-19T16:54:23.893Z,101434.38
2018-07-19T16:56:51.056Z,101448.67
2018-07-19T16:59:18.700Z,101442.46
2018-07-19T17:01:46.009Z,101442.86
2018-07-19T17:04:13.037Z,101441.14
2018-07-19T17:06:40.534Z,101433.91
2018-07-19T17:09:08.132Z,101442.98
2018-07-19T17:11:35.151Z,101440.18
2018-07-19T17:14:02.560Z,101445.75
2018-07-19T17:16:29.610Z,101431.05
2018-07-19T17:18:56.656Z,101444.41
2018-07-19T17:21:24.060Z,101443.95
2018-07-19T17:23:51.104Z,101445.42
2018-07-19T17:26:18.070Z,101441.38
2018-07-19T17:28:45.360Z,101445.56
2018-07-19T17:31:12.400Z,101446.69
2018-07-19T17:33:39.387Z,101444.33
2018-07-19T17:36:06.888Z,101442.53
2018-07-19T17:38:33.930Z,101443.13
2018-07-19T17:41:00.968Z,101451.44
2018-07-19T17:43:28.525Z,101448.77
2018-07-19T17:45:55.501Z,101448.27
2018-07-19T17:48:22.565Z,101453.00
2018-07-19T17:50:50.042Z,101448.09
2018-07-19T17:53:17.131Z,101445.42
2018-07-19T17:55:44.277Z,101447.52
2018-07-19T17:58:11.633Z,101445.67
2018-07-19T18:00:38.621Z,101442.80
2018-07-19T18:03:05.662Z,101442.02
2018-07-19T18:05:32.908Z,101446.55
2018-07-19T18:08:00.573Z,101441.13
2018-07-19T18:10:27.548Z,101436.53
2018-07-19T18:12:54.877Z,101442.27
2018-07-19T18:15:21.926Z,101439.91
2018-07-19T18:17:48.925Z,101441.17
2018-07-19T18:20:16.319Z,101435.20
2018-07-19T18:22:43.267Z,101439.72
2018-07-19T18:25:10.277Z,101442.51
2018-07-19T18:27:37.678Z,101448.39
2018-07-19T18:30:05.181Z,101447.61
2018-07-19T18:32:32.200Z,101451.26
2018-07-19T18:34:59.525Z,101447.72
2018-07-19T18:37:26.482Z,101447.98
2018-07-19T18:39:53.449Z,101451.63
2018-07-19T18:42:20.907Z,101452.21
2018-07-19T18:44:47.905Z,101452.28
2018-07-19T18:47:14.889Z,101445.12
2018-07-19T18:49:42.385Z,101446.53
2018-07-19T18:52:09.435Z,101444.91
2018-07-19T18:54:36.426Z,101444.30
2018-07-19T18:57:03.927Z,101451.55
2018-07-19T18:59:31.065Z,101454.30
2018-07-19T19:01:58.082Z,101454.88
2018-07-19T19:04:25.568Z,101461.98
2018-07-19T19:06:52.547Z,101455.34
2018-07-19T19:09:19.576Z,101462.14
2018-07-19T19:11:47.026Z,101464.91
2018-07-19T19:14:14.059Z,101461.22
2018-07-19T19:16:41.144Z,101468.84
2018-07-19T19:19:08.477Z,101457.25
2018-07-19T19:21:35.516Z,101466.23
2018-07-19T19:24:02.510Z,101461.78
2018-07-19T19:26:30.022Z,101464.22
2018-07-19T19:28:56.980Z,101468.06
2018-07-19T19:31:24.004Z,101463.14
2018-07-19T19:33:51.400Z,101468.32
2018-07-19T19:36:18.416Z,101463.22
2018-07-19T19:38:45.401Z,101463.78
2018-07-19T19:41:12.683Z,101465.38
2018-07-19T19:43:39.702Z,101462.87
2018-07-19T19:46:06.710Z,101456.56
2018-07-19T19:48:35.335Z,101462.06
2018-07-19T19:51:02.737Z,101465.86
2018-07-19T19:53:29.838Z,101458.52
2018-07-19T19:55:57.254Z,101461.81
2018-07-19T19:58:24.375Z,101464.45
2018-07-19T20:00:51.387Z,101472.36
2018-07-19T20:03:18.683Z,101472.03
2018-07-19T20:05:45.734Z,101472.44
2018-07-19T20:08:12.742Z,101474.35
2018-07-19T20:10:40.126Z,101469.59
2018-07-19T20:13:07.143Z,101471.14
2018-07-19T20:15:34.209Z,101472.22
2018-07-19T20:18:01.510Z,101470.17
2018-07-19T20:20:28.514Z,101471.03
2018-07-19T20:22:55.529Z,101470.20
2018-07-19T20:25:22.836Z,101476.56
2018-07-19T20:27:49.807Z,101471.27
2018-07-19T20:30:16.890Z,101471.80
2018-07-19T20:32:44.080Z,101478.34
2018-07-19T20:35:11.038Z,101478.19
2018-07-19T20:37:38.027Z,101472.05
2018-07-19T20:40:05.299Z,101474.63
2018-07-19T20:42:32.328Z,101476.19
2018-07-19T20:44:59.306Z,101484.06
2018-07-19T20:47:26.802Z,101482.32
2018-07-19T20:49:53.776Z,101474.31
2018-07-19T20:52:20.784Z,101479.27
2018-07-19T20:54:48.053Z,101471.75
2018-07-19T20:57:15.055Z,101474.14
2018-07-19T20:59:42.212Z,101473.30
2018-07-19T21:02:09.367Z,101476.39
2018-07-19T21:04:36.413Z,101478.28
2018-07-19T21:07:03.383Z,101478.44
2018-07-19T21:09:30.614Z,101473.48
2018-07-19T21:11:57.654Z,101467.19
2018-07-19T21:14:24.671Z,101475.21
2018-07-19T21:16:51.979Z,101472.27
2018-07-19T21:19:19.002Z,101474.31
2018-07-19T21:21:46.891Z,101475.83
2018-07-19T21:24:14.259Z,101473.44
2018-07-19T21:26:41.300Z,101477.72
2018-07-19T21:29:08.293Z,101483.16
2018-07-19T21:31:35.829Z,101484.83
2018-07-19T21:34:02.933Z,101479.88
2018-07-19T21:36:29.973Z,101479.34
2018-07-19T21:38:58.112Z,101481.37
2018-07-19T21:41:26.042Z,101477.71
2018-07-19T21:43:53.087Z,101475.64
2018-07-19T21:46:20.390Z,101485.02
2018-07-19T21:48:47.630Z,101479.70
2018-07-19T21:51:14.611Z,101479.52
2018-07-19T21:53:42.118Z,101480.14
2018-07-19T21:56:09.180Z,101478.59
2018-07-19T21:58:36.170Z,101478.89
2018-07-19T22:01:09.644Z,101472.72
2018-07-19T22:03:36.630Z,101479.84
2018-07-19T22:06:04.511Z,101473.81
2018-07-19T22:08:31.967Z,101476.31
2018-07-19T22:10:59.053Z,101476.46
2018-07-19T22:13:26.116Z,101474.37
2018-07-19T22:15:53.641Z,101469.91
2018-07-19T22:18:20.638Z,101469.34
2018-07-19T22:20:47.759Z,101474.41
2018-07-19T22:23:15.404Z,101476.06
2018-07-19T22:25:42.456Z,101473.11
2018-07-19T22:28:09.462Z,101468.45
2018-07-19T22:30:36.761Z,101469.73
2018-07-19T22:33:03.817Z,101469.31
2018-07-19T22:35:30.951Z,101465.52
2018-07-19T22:37:58.572Z,101459.00
2018-07-19T22:40:25.582Z,101461.32
2018-07-19T22:42:52.645Z,101461.08
2018-07-19T22:45:19.892Z,101459.84
2018-07-19T22:47:46.975Z,101459.94
2018-07-19T22:50:13.962Z,101458.20
2018-07-19T22:52:41.345Z,101459.66
2018-07-19T22:55:08.360Z,101455.89
2018-07-19T22:57:35.416Z,101453.28
2018-07-19T23:00:02.928Z,101454.24
2018-07-19T23:02:30.230Z,101455.57
2018-07-19T23:04:57.282Z,101456.86
2018-07-19T23:07:24.677Z,101456.45
2018-07-19T23:09:51.679Z,101459.63
2018-07-19T23:12:18.715Z,101457.86
2018-07-19T23:14:45.888Z,101458.81
2018-07-19T23:17:13.019Z,101456.55
2018-07-19T23:19:39.966Z,101451.22
2018-07-19T23:22:07.247Z,101453.38
2018-07-19T23:24:34.487Z,101454.84
2018-07-19T23:27:01.575Z,101448.50
2018-07-19T23:29:29.109Z,101443.63
2018-07-19T23:31:56.207Z,101444.23
2018-07-19T23:34:24.295Z,101453.70
2018-07-19T23:36:55.145Z,101449.88
2018-07-19T23:39:27.017Z,101446.25
2018-07-19T23:42:02.563Z,101441.71
2018-07-19T23:44:35.811Z,101438.23
2018-07-19T23:47:07.694Z,101434.60
2018-07-19T23:49:34.680Z,101440.82
2018-07-19T23:52:01.750Z,101441.27
2018-07-19T23:54:29.269Z,101430.34
2018-07-19T23:56:56.369Z,101424.98
2018-07-19T23:59:23.392Z,101424.06
